sensor_id;sensor_type;location;lat;lon;timestamp;pressure;altitude;pressure_sealevel;temperature;humidity
9277;BME280;4676;42.678;23.244;2024-02-23T00:01:40;93815.56;;;5.64;100.00
9277;BME280;4676;42.678;23.244;2024-02-23T00:04:06;93814.53;;;5.73;100.00
9277;BME280;4676;42.678;23.244;2024-02-23T00:06:36;93788.88;;;5.60;100.00
9277;BME280;4676;42.678;23.244;2024-02-23T00:09:03;93800.00;;;5.84;100.00
9277;BME280;4676;42.678;23.244;2024-02-23T00:11:30;93796.84;;;5.76;100.00
9277;BME280;4676;42.678;23.244;2024-02-23T00:13:58;93805.41;;;5.69;100.00
9277;BME280;4676;42.678;23.244;2024-02-23T00:16:24;93804.59;;;5.67;100.00
9277;BME280;4676;42.678;23.244;2024-02-23T00:18:51;93791.16;;;5.69;100.00
9277;BME280;4676;42.678;23.244;2024-02-23T00:21:18;93812.13;;;5.68;100.00
9277;BME280;4676;42.678;23.244;2024-02-23T00:23:46;93786.25;;;5.63;100.00
9277;BME280;4676;42.678;23.244;2024-02-23T00:26:13;93796.94;;;5.73;100.00
9277;BME280;4676;42.678;23.244;2024-02-23T00:28:39;93797.88;;;5.69;100.00
9277;BME280;4676;42.678;23.244;2024-02-23T00:31:06;93797.69;;;5.75;100.00
9277;BME280;4676;42.678;23.244;2024-02-23T00:33:33;93817.16;;;5.68;100.00
9277;BME280;4676;42.678;23.244;2024-02-23T00:36:00;93810.59;;;5.63;100.00
9277;BME280;4676;42.678;23.244;2024-02-23T00:38:26;93796.66;;;5.82;100.00
9277;BME280;4676;42.678;23.244;2024-02-23T00:40:55;93797.66;;;5.76;100.00
9277;BME280;4676;42.678;23.244;2024-02-23T00:43:21;93800.50;;;5.64;100.00
9277;BME280;4676;42.678;23.244;2024-02-23T00:45:48;93797.03;;;5.68;100.00
9277;BME280;4676;42.678;23.244;2024-02-23T00:48:15;93790.53;;;5.61;100.00
9277;BME280;4676;42.678;23.244;2024-02-23T00:50:42;93783.28;;;5.49;100.00
9277;BME280;4676;42.678;23.244;2024-02-23T00:53:09;93789.34;;;5.42;100.00
9277;BME280;4676;42.678;23.244;2024-02-23T00:55:36;93781.28;;;5.62;100.00
9277;BME280;4676;42.678;23.244;2024-02-23T00:58:04;93784.19;;;5.46;100.00
9277;BME280;4676;42.678;23.244;2024-02-23T01:00:31;93792.00;;;5.36;100.00
9277;BME280;4676;42.678;23.244;2024-02-23T01:02:58;93760.06;;;5.41;100.00
9277;BME280;4676;42.678;23.244;2024-02-23T01:05:25;93769.97;;;5.45;100.00
9277;BME280;4676;42.678;23.244;2024-02-23T01:07:52;93769.84;;;5.51;100.00
9277;BME280;4676;42.678;23.244;2024-02-23T01:10:19;93762.97;;;5.58;100.00
9277;BME280;4676;42.678;23.244;2024-02-23T01:12:45;93762.41;;;5.47;100.00
9277;BME280;4676;42.678;23.244;2024-02-23T01:15:13;93765.38;;;5.61;100.00
9277;BME280;4676;42.678;23.244;2024-02-23T01:17:40;93762.13;;;5.58;100.00
9277;BME280;4676;42.678;23.244;2024-02-23T01:20:07;93776.47;;;5.54;100.00
9277;BME280;4676;42.678;23.244;2024-02-23T01:22:34;93755.06;;;5.39;100.00
9277;BME280;4676;42.678;23.244;2024-02-23T01:25:01;93749.88;;;5.45;100.00
9277;BME280;4676;42.678;23.244;2024-02-23T01:27:27;93750.63;;;5.49;100.00
9277;BME280;4676;42.678;23.244;2024-02-23T01:29:54;93757.75;;;5.33;100.00
9277;BME280;4676;42.678;23.244;2024-02-23T01:32:22;93752.00;;;5.28;100.00
9277;BME280;4676;42.678;23.244;2024-02-23T01:34:49;93741.38;;;5.19;100.00
9277;BME280;4676;42.678;23.244;2024-02-23T01:37:16;93753.38;;;5.08;100.00
9277;BME280;4676;42.678;23.244;2024-02-23T01:39:42;93746.31;;;5.22;100.00
9277;BME280;4676;42.678;23.244;2024-02-23T01:42:10;93745.41;;;5.24;100.00
9277;BME280;4676;42.678;23.244;2024-02-23T01:44:36;93741.28;;;5.22;100.00
9277;BME280;4676;42.678;23.244;2024-02-23T01:47:03;93742.56;;;5.38;100.00
9277;BME280;4676;42.678;23.244;2024-02-23T01:49:32;93741.09;;;5.29;100.00
9277;BME280;4676;42.678;23.244;2024-02-23T01:52:00;93743.50;;;5.34;100.00
9277;BME280;4676;42.678;23.244;2024-02-23T01:54:27;93741.00;;;5.32;100.00
9277;BME280;4676;42.678;23.244;2024-02-23T01:56:55;93732.34;;;5.12;100.00
9277;BME280;4676;42.678;23.244;2024-02-23T01:59:23;93733.09;;;5.15;100.00
9277;BME280;4676;42.678;23.244;2024-02-23T02:01:51;93732.44;;;5.07;100.00
9277;BME280;4676;42.678;23.244;2024-02-23T02:04:18;93654.22;;;4.90;100.00
9277;BME280;4676;42.678;23.244;2024-02-23T02:06:46;93731.31;;;5.19;100.00
9277;BME280;4676;42.678;23.244;2024-02-23T02:09:14;93703.97;;;5.08;100.00
9277;BME280;4676;42.678;23.244;2024-02-23T02:11:45;93708.91;;;5.11;100.00
9277;BME280;4676;42.678;23.244;2024-02-23T02:14:12;93715.09;;;4.99;100.00
9277;BME280;4676;42.678;23.244;2024-02-23T02:16:39;93720.63;;;5.11;100.00
9277;BME280;4676;42.678;23.244;2024-02-23T02:19:06;93727.63;;;4.99;100.00
9277;BME280;4676;42.678;23.244;2024-02-23T02:21:33;93712.41;;;5.06;100.00
9277;BME280;4676;42.678;23.244;2024-02-23T02:24:01;93725.91;;;5.01;100.00
9277;BME280;4676;42.678;23.244;2024-02-23T02:26:29;93741.19;;;4.92;100.00
9277;BME280;4676;42.678;23.244;2024-02-23T02:28:55;93719.03;;;5.08;100.00
9277;BME280;4676;42.678;23.244;2024-02-23T02:31:22;93704.69;;;4.79;100.00
9277;BME280;4676;42.678;23.244;2024-02-23T02:33:49;93718.81;;;4.83;100.00
9277;BME280;4676;42.678;23.244;2024-02-23T02:36:15;93728.91;;;4.82;100.00
9277;BME280;4676;42.678;23.244;2024-02-23T02:38:42;93732.44;;;4.75;100.00
9277;BME280;4676;42.678;23.244;2024-02-23T02:41:10;93730.78;;;4.74;100.00
9277;BME280;4676;42.678;23.244;2024-02-23T02:43:37;93733.53;;;4.63;100.00
9277;BME280;4676;42.678;23.244;2024-02-23T02:46:04;93734.56;;;4.54;100.00
9277;BME280;4676;42.678;23.244;2024-02-23T02:48:30;93724.69;;;4.47;100.00
9277;BME280;4676;42.678;23.244;2024-02-23T02:50:57;93716.75;;;4.65;100.00
9277;BME280;4676;42.678;23.244;2024-02-23T02:53:24;93743.47;;;4.68;100.00
9277;BME280;4676;42.678;23.244;2024-02-23T02:55:50;93719.81;;;4.78;100.00
9277;BME280;4676;42.678;23.244;2024-02-23T02:58:21;93701.91;;;4.56;100.00
9277;BME280;4676;42.678;23.244;2024-02-23T03:00:47;93726.41;;;4.82;100.00
9277;BME280;4676;42.678;23.244;2024-02-23T03:03:14;93737.06;;;4.90;100.00
9277;BME280;4676;42.678;23.244;2024-02-23T03:05:41;93741.50;;;4.79;100.00
9277;BME280;4676;42.678;23.244;2024-02-23T03:08:07;93742.66;;;5.01;100.00
9277;BME280;4676;42.678;23.244;2024-02-23T03:10:34;93731.94;;;4.94;100.00
9277;BME280;4676;42.678;23.244;2024-02-23T03:13:01;93747.94;;;4.90;100.00
9277;BME280;4676;42.678;23.244;2024-02-23T03:15:29;93753.06;;;4.86;100.00
9277;BME280;4676;42.678;23.244;2024-02-23T03:17:56;93740.38;;;4.92;100.00
9277;BME280;4676;42.678;23.244;2024-02-23T03:20:22;93712.78;;;4.90;100.00
9277;BME280;4676;42.678;23.244;2024-02-23T03:22:49;93744.50;;;4.93;100.00
9277;BME280;4676;42.678;23.244;2024-02-23T03:25:16;93728.06;;;5.15;100.00
9277;BME280;4676;42.678;23.244;2024-02-23T03:27:43;93724.13;;;5.07;100.00
9277;BME280;4676;42.678;23.244;2024-02-23T03:30:10;93738.38;;;5.04;100.00
9277;BME280;4676;42.678;23.244;2024-02-23T03:32:38;93726.00;;;4.97;100.00
9277;BME280;4676;42.678;23.244;2024-02-23T03:35:06;93747.84;;;4.93;100.00
9277;BME280;4676;42.678;23.244;2024-02-23T03:37:35;93730.94;;;5.00;100.00
9277;BME280;4676;42.678;23.244;2024-02-23T03:40:03;93718.19;;;5.08;100.00
9277;BME280;4676;42.678;23.244;2024-02-23T03:42:30;93734.91;;;5.10;100.00
9277;BME280;4676;42.678;23.244;2024-02-23T03:44:56;93718.88;;;5.14;100.00
9277;BME280;4676;42.678;23.244;2024-02-23T03:47:23;93732.50;;;5.06;100.00
9277;BME280;4676;42.678;23.244;2024-02-23T03:49:51;93729.25;;;5.00;100.00
9277;BME280;4676;42.678;23.244;2024-02-23T03:52:18;93743.56;;;4.98;100.00
9277;BME280;4676;42.678;23.244;2024-02-23T03:54:45;93721.91;;;4.94;100.00
9277;BME280;4676;42.678;23.244;2024-02-23T03:57:11;93711.81;;;4.96;100.00
9277;BME280;4676;42.678;23.244;2024-02-23T03:59:38;93732.00;;;4.91;100.00
9277;BME280;4676;42.678;23.244;2024-02-23T04:02:06;93731.19;;;4.91;100.00
9277;BME280;4676;42.678;23.244;2024-02-23T04:04:33;93731.97;;;4.93;100.00
9277;BME280;4676;42.678;23.244;2024-02-23T04:07:01;93745.41;;;4.90;100.00
9277;BME280;4676;42.678;23.244;2024-02-23T04:09:28;93733.28;;;5.08;100.00
9277;BME280;4676;42.678;23.244;2024-02-23T04:11:55;93746.00;;;5.01;100.00
9277;BME280;4676;42.678;23.244;2024-02-23T04:14:21;93738.78;;;4.88;100.00
9277;BME280;4676;42.678;23.244;2024-02-23T04:16:48;93752.94;;;4.90;100.00
9277;BME280;4676;42.678;23.244;2024-02-23T04:19:15;93755.63;;;4.84;100.00
9277;BME280;4676;42.678;23.244;2024-02-23T04:21:41;93726.34;;;4.83;100.00
9277;BME280;4676;42.678;23.244;2024-02-23T04:24:09;93749.66;;;4.88;100.00
9277;BME280;4676;42.678;23.244;2024-02-23T04:26:36;93746.66;;;4.74;100.00
9277;BME280;4676;42.678;23.244;2024-02-23T04:29:03;93750.88;;;4.72;100.00
9277;BME280;4676;42.678;23.244;2024-02-23T04:31:29;93737.19;;;4.85;100.00
9277;BME280;4676;42.678;23.244;2024-02-23T04:33:56;93749.16;;;4.74;100.00
9277;BME280;4676;42.678;23.244;2024-02-23T04:36:23;93738.75;;;4.54;100.00
9277;BME280;4676;42.678;23.244;2024-02-23T04:38:49;93735.22;;;4.63;100.00
9277;BME280;4676;42.678;23.244;2024-02-23T04:41:20;93747.16;;;4.51;100.00
9277;BME280;4676;42.678;23.244;2024-02-23T04:43:47;93740.31;;;4.58;100.00
9277;BME280;4676;42.678;23.244;2024-02-23T04:46:14;93748.31;;;4.38;100.00
9277;BME280;4676;42.678;23.244;2024-02-23T04:48:41;93729.06;;;4.39;100.00
9277;BME280;4676;42.678;23.244;2024-02-23T04:51:08;93744.88;;;4.42;100.00
9277;BME280;4676;42.678;23.244;2024-02-23T04:53:36;93758.50;;;4.32;100.00
9277;BME280;4676;42.678;23.244;2024-02-23T04:56:03;93751.97;;;4.24;100.00
9277;BME280;4676;42.678;23.244;2024-02-23T04:58:31;93744.25;;;4.33;100.00
9277;BME280;4676;42.678;23.244;2024-02-23T05:00:58;93753.63;;;4.25;100.00
9277;BME280;4676;42.678;23.244;2024-02-23T05:03:25;93747.16;;;4.15;100.00
9277;BME280;4676;42.678;23.244;2024-02-23T05:05:54;93754.72;;;4.13;100.00
9277;BME280;4676;42.678;23.244;2024-02-23T05:08:21;93755.69;;;4.08;100.00
9277;BME280;4676;42.678;23.244;2024-02-23T05:10:49;93768.00;;;4.17;100.00
9277;BME280;4676;42.678;23.244;2024-02-23T05:13:16;93743.63;;;4.23;100.00
9277;BME280;4676;42.678;23.244;2024-02-23T05:15:44;93771.91;;;4.30;100.00
9277;BME280;4676;42.678;23.244;2024-02-23T05:18:10;93783.53;;;4.34;100.00
9277;BME280;4676;42.678;23.244;2024-02-23T05:20:37;93757.00;;;4.22;100.00
9277;BME280;4676;42.678;23.244;2024-02-23T05:23:04;93778.81;;;4.19;100.00
9277;BME280;4676;42.678;23.244;2024-02-23T05:25:31;93773.81;;;4.19;100.00
9277;BME280;4676;42.678;23.244;2024-02-23T05:27:57;93787.09;;;4.24;100.00
9277;BME280;4676;42.678;23.244;2024-02-23T05:30:24;93781.38;;;4.17;100.00
9277;BME280;4676;42.678;23.244;2024-02-23T05:32:53;93783.19;;;4.11;100.00
9277;BME280;4676;42.678;23.244;2024-02-23T05:35:20;93784.88;;;4.10;100.00
9277;BME280;4676;42.678;23.244;2024-02-23T05:37:47;93746.22;;;4.19;100.00
9277;BME280;4676;42.678;23.244;2024-02-23T05:40:15;93777.72;;;4.32;100.00
9277;BME280;4676;42.678;23.244;2024-02-23T05:42:42;93776.66;;;4.42;100.00
9277;BME280;4676;42.678;23.244;2024-02-23T05:45:09;93790.28;;;4.32;100.00
9277;BME280;4676;42.678;23.244;2024-02-23T05:47:36;93789.44;;;4.31;100.00
9277;BME280;4676;42.678;23.244;2024-02-23T05:50:05;93782.53;;;4.41;100.00
9277;BME280;4676;42.678;23.244;2024-02-23T05:52:32;93784.13;;;4.43;100.00
9277;BME280;4676;42.678;23.244;2024-02-23T05:54:59;93796.41;;;4.57;100.00
9277;BME280;4676;42.678;23.244;2024-02-23T05:57:26;93799.72;;;4.58;100.00
9277;BME280;4676;42.678;23.244;2024-02-23T05:59:52;93807.78;;;4.72;100.00
9277;BME280;4676;42.678;23.244;2024-02-23T06:02:20;93800.25;;;4.72;100.00
9277;BME280;4676;42.678;23.244;2024-02-23T06:04:47;93794.03;;;4.86;100.00
9277;BME280;4676;42.678;23.244;2024-02-23T06:07:16;93797.97;;;4.98;100.00
9277;BME280;4676;42.678;23.244;2024-02-23T06:09:42;93796.31;;;4.97;100.00
9277;BME280;4676;42.678;23.244;2024-02-23T06:12:09;93810.38;;;5.04;100.00
9277;BME280;4676;42.678;23.244;2024-02-23T06:14:36;93810.03;;;5.18;100.00
9277;BME280;4676;42.678;23.244;2024-02-23T06:17:03;93797.09;;;5.34;100.00
9277;BME280;4676;42.678;23.244;2024-02-23T06:19:32;93817.97;;;5.35;100.00
9277;BME280;4676;42.678;23.244;2024-02-23T06:21:58;93821.22;;;5.40;100.00
9277;BME280;4676;42.678;23.244;2024-02-23T06:24:26;93807.19;;;5.64;100.00
9277;BME280;4676;42.678;23.244;2024-02-23T06:26:53;93805.97;;;5.78;100.00
9277;BME280;4676;42.678;23.244;2024-02-23T06:29:20;93817.47;;;5.88;100.00
9277;BME280;4676;42.678;23.244;2024-02-23T06:31:47;93823.31;;;5.90;100.00
9277;BME280;4676;42.678;23.244;2024-02-23T06:34:14;93814.44;;;6.08;100.00
9277;BME280;4676;42.678;23.244;2024-02-23T06:36:41;93796.00;;;6.08;100.00
9277;BME280;4676;42.678;23.244;2024-02-23T06:39:08;93806.28;;;6.29;100.00
9277;BME280;4676;42.678;23.244;2024-02-23T06:41:37;93822.72;;;6.41;100.00
9277;BME280;4676;42.678;23.244;2024-02-23T06:44:05;93771.81;;;6.33;100.00
9277;BME280;4676;42.678;23.244;2024-02-23T06:46:32;93820.28;;;6.67;100.00
9277;BME280;4676;42.678;23.244;2024-02-23T06:48:58;93814.72;;;6.84;100.00
9277;BME280;4676;42.678;23.244;2024-02-23T06:51:25;93832.88;;;6.95;100.00
9277;BME280;4676;42.678;23.244;2024-02-23T06:53:52;93817.53;;;7.02;100.00
9277;BME280;4676;42.678;23.244;2024-02-23T06:56:20;93788.38;;;6.94;100.00
9277;BME280;4676;42.678;23.244;2024-02-23T06:58:48;93805.66;;;7.06;100.00
9277;BME280;4676;42.678;23.244;2024-02-23T07:01:15;93823.53;;;7.25;100.00
9277;BME280;4676;42.678;23.244;2024-02-23T07:03:41;93820.97;;;7.26;100.00
9277;BME280;4676;42.678;23.244;2024-02-23T07:06:10;93829.13;;;7.34;100.00
9277;BME280;4676;42.678;23.244;2024-02-23T07:08:37;93833.22;;;7.37;100.00
9277;BME280;4676;42.678;23.244;2024-02-23T07:11:04;93834.56;;;7.47;100.00
9277;BME280;4676;42.678;23.244;2024-02-23T07:13:31;93810.41;;;7.41;100.00
9277;BME280;4676;42.678;23.244;2024-02-23T07:16:00;93804.31;;;7.47;100.00
9277;BME280;4676;42.678;23.244;2024-02-23T07:18:26;93836.75;;;7.58;100.00
9277;BME280;4676;42.678;23.244;2024-02-23T07:20:53;93804.66;;;7.63;100.00
9277;BME280;4676;42.678;23.244;2024-02-23T07:23:20;93826.91;;;7.75;100.00
9277;BME280;4676;42.678;23.244;2024-02-23T07:25:48;93813.31;;;7.80;100.00
9277;BME280;4676;42.678;23.244;2024-02-23T07:28:16;93804.19;;;7.76;100.00
9277;BME280;4676;42.678;23.244;2024-02-23T07:30:45;93784.38;;;7.66;100.00
9277;BME280;4676;42.678;23.244;2024-02-23T07:33:13;93815.13;;;7.75;100.00
9277;BME280;4676;42.678;23.244;2024-02-23T07:35:39;93825.81;;;7.83;100.00
9277;BME280;4676;42.678;23.244;2024-02-23T07:38:06;93808.53;;;7.96;100.00
9277;BME280;4676;42.678;23.244;2024-02-23T07:40:33;93807.41;;;8.04;100.00
9277;BME280;4676;42.678;23.244;2024-02-23T07:42:59;93831.31;;;8.18;100.00
9277;BME280;4676;42.678;23.244;2024-02-23T07:45:26;93827.59;;;8.28;100.00
9277;BME280;4676;42.678;23.244;2024-02-23T07:47:53;93812.38;;;8.31;100.00
9277;BME280;4676;42.678;23.244;2024-02-23T07:50:21;93807.41;;;8.29;100.00
9277;BME280;4676;42.678;23.244;2024-02-23T07:52:47;93812.69;;;8.45;100.00
9277;BME280;4676;42.678;23.244;2024-02-23T07:55:14;93832.59;;;8.54;100.00
9277;BME280;4676;42.678;23.244;2024-02-23T07:57:41;93802.88;;;8.61;100.00
9277;BME280;4676;42.678;23.244;2024-02-23T08:00:09;93797.66;;;8.42;100.00
9277;BME280;4676;42.678;23.244;2024-02-23T08:02:36;93812.72;;;8.67;100.00
9277;BME280;4676;42.678;23.244;2024-02-23T08:05:02;93798.56;;;8.63;100.00
9277;BME280;4676;42.678;23.244;2024-02-23T08:07:31;93822.31;;;8.80;100.00
9277;BME280;4676;42.678;23.244;2024-02-23T08:09:58;93810.09;;;8.91;100.00
9277;BME280;4676;42.678;23.244;2024-02-23T08:12:25;93801.50;;;8.97;100.00
9277;BME280;4676;42.678;23.244;2024-02-23T08:14:52;93797.06;;;9.02;100.00
9277;BME280;4676;42.678;23.244;2024-02-23T08:17:19;93806.72;;;9.14;100.00
9277;BME280;4676;42.678;23.244;2024-02-23T08:19:46;93799.53;;;9.25;100.00
9277;BME280;4676;42.678;23.244;2024-02-23T08:22:13;93805.59;;;9.41;100.00
9277;BME280;4676;42.678;23.244;2024-02-23T08:24:41;93803.16;;;9.60;100.00
9277;BME280;4676;42.678;23.244;2024-02-23T08:27:07;93809.78;;;9.83;100.00
9277;BME280;4676;42.678;23.244;2024-02-23T08:29:37;93805.06;;;9.95;94.94
9277;BME280;4676;42.678;23.244;2024-02-23T08:32:06;93789.78;;;9.97;93.98
9277;BME280;4676;42.678;23.244;2024-02-23T08:34:32;93802.69;;;10.11;93.74
9277;BME280;4676;42.678;23.244;2024-02-23T08:37:00;93800.72;;;10.18;92.95
9277;BME280;4676;42.678;23.244;2024-02-23T08:39:26;93792.34;;;10.36;94.99
9277;BME280;4676;42.678;23.244;2024-02-23T08:41:55;93795.91;;;10.50;97.26
9277;BME280;4676;42.678;23.244;2024-02-23T08:44:22;93791.53;;;10.73;97.02
9277;BME280;4676;42.678;23.244;2024-02-23T08:46:48;93792.72;;;11.01;89.20
9277;BME280;4676;42.678;23.244;2024-02-23T08:49:15;93789.09;;;11.24;90.47
9277;BME280;4676;42.678;23.244;2024-02-23T08:51:42;93803.00;;;11.51;88.75
9277;BME280;4676;42.678;23.244;2024-02-23T08:54:08;93803.28;;;11.81;83.65
9277;BME280;4676;42.678;23.244;2024-02-23T08:56:37;93757.16;;;11.54;78.28
9277;BME280;4676;42.678;23.244;2024-02-23T08:59:05;93799.38;;;11.91;79.89
9277;BME280;4676;42.678;23.244;2024-02-23T09:01:32;93797.19;;;12.01;75.05
9277;BME280;4676;42.678;23.244;2024-02-23T09:03:59;93788.53;;;12.05;74.53
9277;BME280;4676;42.678;23.244;2024-02-23T09:06:26;93796.31;;;12.02;74.35
9277;BME280;4676;42.678;23.244;2024-02-23T09:08:53;93799.13;;;12.13;71.43
9277;BME280;4676;42.678;23.244;2024-02-23T09:11:22;93794.31;;;12.24;73.33
9277;BME280;4676;42.678;23.244;2024-02-23T09:13:51;93770.81;;;12.03;70.77
9277;BME280;4676;42.678;23.244;2024-02-23T09:16:19;93797.75;;;12.23;71.63
9277;BME280;4676;42.678;23.244;2024-02-23T09:18:47;93802.25;;;12.18;70.52
9277;BME280;4676;42.678;23.244;2024-02-23T09:21:14;93794.28;;;12.09;68.90
9277;BME280;4676;42.678;23.244;2024-02-23T09:23:41;93772.97;;;11.78;71.04
9277;BME280;4676;42.678;23.244;2024-02-23T09:26:11;93790.72;;;11.95;70.47
9277;BME280;4676;42.678;23.244;2024-02-23T09:28:38;93800.38;;;12.22;70.56
9277;BME280;4676;42.678;23.244;2024-02-23T09:31:06;93802.06;;;12.38;70.38
9277;BME280;4676;42.678;23.244;2024-02-23T09:33:34;93800.03;;;12.45;68.12
9277;BME280;4676;42.678;23.244;2024-02-23T09:36:01;93771.78;;;12.34;68.08
9277;BME280;4676;42.678;23.244;2024-02-23T09:38:28;93796.72;;;12.43;69.32
9277;BME280;4676;42.678;23.244;2024-02-23T09:40:57;93801.47;;;12.49;67.56
9277;BME280;4676;42.678;23.244;2024-02-23T09:43:29;93804.69;;;12.52;68.12
9277;BME280;4676;42.678;23.244;2024-02-23T09:45:56;93798.53;;;12.57;66.95
9277;BME280;4676;42.678;23.244;2024-02-23T09:48:24;93779.59;;;12.46;66.65
9277;BME280;4676;42.678;23.244;2024-02-23T09:50:52;93791.00;;;12.55;68.38
9277;BME280;4676;42.678;23.244;2024-02-23T09:53:22;93804.38;;;12.74;70.32
9277;BME280;4676;42.678;23.244;2024-02-23T09:55:50;93776.97;;;12.95;66.16
9277;BME280;4676;42.678;23.244;2024-02-23T09:58:17;93780.53;;;13.08;65.27
9277;BME280;4676;42.678;23.244;2024-02-23T10:00:46;93776.84;;;13.14;65.54
9277;BME280;4676;42.678;23.244;2024-02-23T10:03:13;93777.53;;;13.47;67.81
9277;BME280;4676;42.678;23.244;2024-02-23T10:05:40;93754.28;;;13.67;62.16
9277;BME280;4676;42.678;23.244;2024-02-23T10:08:08;93755.88;;;13.84;62.50
9277;BME280;4676;42.678;23.244;2024-02-23T10:10:35;93764.28;;;14.14;61.13
9277;BME280;4676;42.678;23.244;2024-02-23T10:13:02;93769.38;;;14.00;59.00
9277;BME280;4676;42.678;23.244;2024-02-23T10:15:29;93771.03;;;13.71;60.72
9277;BME280;4676;42.678;23.244;2024-02-23T10:17:56;93769.63;;;13.95;60.25
9277;BME280;4676;42.678;23.244;2024-02-23T10:20:24;93771.63;;;14.19;58.21
9277;BME280;4676;42.678;23.244;2024-02-23T10:22:50;93780.59;;;14.54;60.54
9277;BME280;4676;42.678;23.244;2024-02-23T10:25:21;93781.13;;;14.73;55.02
9277;BME280;4676;42.678;23.244;2024-02-23T10:27:47;93774.94;;;15.04;57.15
9277;BME280;4676;42.678;23.244;2024-02-23T10:30:14;93775.09;;;15.15;56.08
9277;BME280;4676;42.678;23.244;2024-02-23T10:32:41;93751.78;;;15.34;55.72
9277;BME280;4676;42.678;23.244;2024-02-23T10:35:11;93740.53;;;15.51;54.98
9277;BME280;4676;42.678;23.244;2024-02-23T10:37:42;93733.31;;;15.43;54.58
9277;BME280;4676;42.678;23.244;2024-02-23T10:40:11;93747.38;;;15.63;54.68
9277;BME280;4676;42.678;23.244;2024-02-23T10:42:40;93750.16;;;15.72;54.66
9277;BME280;4676;42.678;23.244;2024-02-23T10:45:10;93747.44;;;15.48;50.44
9277;BME280;4676;42.678;23.244;2024-02-23T10:47:37;93738.81;;;15.64;52.46
9277;BME280;4676;42.678;23.244;2024-02-23T10:50:05;93746.59;;;15.75;52.18
9277;BME280;4676;42.678;23.244;2024-02-23T10:52:33;93745.44;;;15.66;52.14
9277;BME280;4676;42.678;23.244;2024-02-23T10:55:01;93739.09;;;15.59;53.72
9277;BME280;4676;42.678;23.244;2024-02-23T10:57:30;93734.31;;;15.67;52.74
9277;BME280;4676;42.678;23.244;2024-02-23T10:59:59;93734.84;;;15.85;53.63
9277;BME280;4676;42.678;23.244;2024-02-23T11:02:27;93723.81;;;15.97;53.26
9277;BME280;4676;42.678;23.244;2024-02-23T11:04:57;93688.94;;;15.83;53.32
9277;BME280;4676;42.678;23.244;2024-02-23T11:07:25;93726.97;;;16.13;51.78
9277;BME280;4676;42.678;23.244;2024-02-23T11:09:54;93707.25;;;16.03;50.96
9277;BME280;4676;42.678;23.244;2024-02-23T11:12:24;93717.34;;;16.17;51.21
9277;BME280;4676;42.678;23.244;2024-02-23T11:14:51;93718.28;;;16.16;50.25
9277;BME280;4676;42.678;23.244;2024-02-23T11:17:26;93716.34;;;16.07;50.41
9277;BME280;4676;42.678;23.244;2024-02-23T11:19:54;93708.47;;;15.84;50.19
9277;BME280;4676;42.678;23.244;2024-02-23T11:22:25;93709.00;;;15.89;50.74
9277;BME280;4676;42.678;23.244;2024-02-23T11:24:53;93694.16;;;15.82;50.68
9277;BME280;4676;42.678;23.244;2024-02-23T11:27:20;93696.00;;;15.92;51.16
9277;BME280;4676;42.678;23.244;2024-02-23T11:29:47;93691.91;;;16.03;52.53
9277;BME280;4676;42.678;23.244;2024-02-23T11:32:14;93697.13;;;16.14;49.59
9277;BME280;4676;42.678;23.244;2024-02-23T11:34:54;93679.44;;;15.98;49.66
9277;BME280;4676;42.678;23.244;2024-02-23T11:37:21;93687.91;;;16.24;49.85
9277;BME280;4676;42.678;23.244;2024-02-23T11:39:48;93699.47;;;16.17;49.61
9277;BME280;4676;42.678;23.244;2024-02-23T11:42:14;93700.88;;;16.21;49.57
9277;BME280;4676;42.678;23.244;2024-02-23T11:44:42;93699.38;;;16.18;50.72
9277;BME280;4676;42.678;23.244;2024-02-23T11:47:08;93684.03;;;16.18;49.94
9277;BME280;4676;42.678;23.244;2024-02-23T11:49:35;93685.03;;;16.16;49.97
9277;BME280;4676;42.678;23.244;2024-02-23T11:52:03;93686.88;;;16.01;49.08
9277;BME280;4676;42.678;23.244;2024-02-23T11:54:31;93674.94;;;16.14;50.04
9277;BME280;4676;42.678;23.244;2024-02-23T11:56:57;93674.72;;;16.17;49.26
9277;BME280;4676;42.678;23.244;2024-02-23T11:59:25;93675.31;;;16.21;48.58
9277;BME280;4676;42.678;23.244;2024-02-23T12:01:52;93675.41;;;16.32;48.40
9277;BME280;4676;42.678;23.244;2024-02-23T12:04:19;93680.75;;;16.29;48.80
9277;BME280;4676;42.678;23.244;2024-02-23T12:06:46;93676.41;;;16.42;48.90
9277;BME280;4676;42.678;23.244;2024-02-23T12:09:15;93659.00;;;16.60;50.40
9277;BME280;4676;42.678;23.244;2024-02-23T12:11:42;93665.16;;;16.81;49.15
9277;BME280;4676;42.678;23.244;2024-02-23T12:14:09;93671.13;;;16.92;48.36
9277;BME280;4676;42.678;23.244;2024-02-23T12:16:36;93658.31;;;16.81;47.20
9277;BME280;4676;42.678;23.244;2024-02-23T12:19:03;93679.91;;;16.28;46.72
9277;BME280;4676;42.678;23.244;2024-02-23T12:21:30;93645.16;;;16.13;48.66
9277;BME280;4676;42.678;23.244;2024-02-23T12:23:56;93661.13;;;16.04;47.65
9277;BME280;4676;42.678;23.244;2024-02-23T12:26:25;93665.91;;;16.09;49.00
9277;BME280;4676;42.678;23.244;2024-02-23T12:28:51;93659.59;;;16.14;48.39
9277;BME280;4676;42.678;23.244;2024-02-23T12:31:23;93649.22;;;16.28;47.39
9277;BME280;4676;42.678;23.244;2024-02-23T12:33:50;93637.50;;;16.49;46.79
9277;BME280;4676;42.678;23.244;2024-02-23T12:36:17;93645.59;;;16.56;46.87
9277;BME280;4676;42.678;23.244;2024-02-23T12:38:44;93628.91;;;16.63;46.72
9277;BME280;4676;42.678;23.244;2024-02-23T12:41:11;93631.09;;;16.68;46.89
9277;BME280;4676;42.678;23.244;2024-02-23T12:43:39;93635.97;;;16.83;47.02
9277;BME280;4676;42.678;23.244;2024-02-23T12:46:05;93646.72;;;16.88;45.59
9277;BME280;4676;42.678;23.244;2024-02-23T12:48:34;93629.94;;;16.84;45.52
9277;BME280;4676;42.678;23.244;2024-02-23T12:51:00;93623.25;;;16.82;45.31
9277;BME280;4676;42.678;23.244;2024-02-23T12:53:32;93623.16;;;16.83;44.91
9277;BME280;4676;42.678;23.244;2024-02-23T12:56:00;93624.03;;;16.95;46.03
9277;BME280;4676;42.678;23.244;2024-02-23T12:58:27;93606.34;;;17.03;46.34
9277;BME280;4676;42.678;23.244;2024-02-23T13:00:56;93613.50;;;17.11;46.50
9277;BME280;4676;42.678;23.244;2024-02-23T13:03:24;93610.88;;;16.88;45.16
9277;BME280;4676;42.678;23.244;2024-02-23T13:05:52;93629.25;;;16.93;44.13
9277;BME280;4676;42.678;23.244;2024-02-23T13:08:18;93616.50;;;17.05;44.93
9277;BME280;4676;42.678;23.244;2024-02-23T13:10:45;93617.28;;;16.94;44.87